KTUP/TUP METAR and TAF weather

Enter ICAO airport designator
Station Type Date Time Source
KTUP METAR 2022/06/25 21:52 UTC NOAA

KTUP 252152Z VRB/06KT 10SM CLR 37/16 A2997


Station Type Date Time Source
KTUP Decoded METAR 2022/06/25 21:52 UTC NOAA

TUPELO REGIONAL AIRPORT, MS, United States (KTUP) 34-16N 88-46W 105M
Jun 25, 2022 - 05:52 PM EDT / 2022.06.25 2152 UTC
Visibility: 10 mile(s):0
Sky conditions: clear
Temperature: 98 F (37 C)
Heat index: 98.1 F (36.7 C):1
Dew Point: 60 F (16 C)
Relative Humidity: 28%
Pressure (altimeter): 29.97 in. Hg (1014 hPa)
ob: KTUP 252152Z VRB/06KT 10SM CLR 37/16 A2997
cycle: 22

Station Type Date Time Source
KTUP TAF 2022/06/26 06:22 UTC NOAA

TAF KTUP 260520Z 2606/2706 VRB03KT P6SM SKC
FM261500 VRB06KT P6SM SCT040
FM261900 36010G15KT P6SM VCTS SCT050CB BKN100 BKN250
FM270100 02010KT P6SM VCSH BKN060 BKN250
AMD NOT SKED

Example: see airport list